Time;durP1;ratioP1;P1;durP2;ratioP2;P2;SDS_P1;SDS_P2;PMS_P1;PMS_P2;Temp;Humidity;BMP_temperature;BMP_pressure;BME280_temperature;BME280_humidity;BME280_pressure;Samples;Min_cycle;Max_cycle;Signal;HPM_P1;HPM_P2
2022/10/22 00:02:33;;;;;;;5.13;4.73;;;;;;;15.80;91.72;100885.94;6262787;28;20224;-76
2022/10/22 00:05:54;;;;;;;5.73;4.07;;;;;;;15.80;92.65;100880.50;6264564;28;20632;-76
2022/10/22 00:09:15;;;;;;;5.87;4.57;;;;;;;15.68;93.50;100883.72;6274574;28;20226;-76
2022/10/22 00:12:38;;;;;;;12.17;6.60;;;;;;;15.73;92.96;100890.34;6260362;28;20565;-76
2022/10/22 00:15:59;;;;;;;5.37;4.60;;;;;;;15.67;93.17;100890.16;6257953;28;20664;-75
2022/10/22 00:19:19;;;;;;;8.90;6.80;;;;;;;15.70;93.33;100893.41;6275963;28;20256;-75
2022/10/22 00:22:40;;;;;;;6.63;5.93;;;;;;;15.72;92.90;100896.81;6247429;28;21864;-75
2022/10/22 00:26:01;;;;;;;6.90;4.63;;;;;;;15.78;92.90;100900.72;6261538;28;20230;-75
2022/10/22 00:29:23;;;;;;;8.10;5.33;;;;;;;15.80;92.54;100904.09;6283308;28;20230;-76
2022/10/22 00:32:45;;;;;;;6.47;5.87;;;;;;;15.87;92.12;100911.41;6261178;28;20317;-76
2022/10/22 00:36:07;;;;;;;7.23;6.07;;;;;;;15.79;92.22;100899.69;6262797;28;20318;-76
2022/10/22 00:39:28;;;;;;;6.33;4.53;;;;;;;15.78;92.29;100901.56;6254803;28;20239;-76
2022/10/22 00:42:49;;;;;;;6.93;4.43;;;;;;;15.73;92.59;100897.63;6262572;28;20235;-74
2022/10/22 00:46:11;;;;;;;6.70;6.00;;;;;;;15.63;93.28;100910.53;6259377;28;20267;-74
2022/10/22 00:49:33;;;;;;;5.63;5.10;;;;;;;15.73;93.38;100913.94;6278032;28;20225;-75
2022/10/22 00:52:55;;;;;;;6.93;5.20;;;;;;;15.62;93.49;100912.44;6252092;28;20247;-75
2022/10/22 00:56:16;;;;;;;6.27;5.27;;;;;;;15.62;93.28;100909.72;6252501;28;20228;-75
2022/10/22 00:59:38;;;;;;;8.50;5.33;;;;;;;15.63;93.86;100919.53;6268976;28;20243;-75
2022/10/22 01:03:01;;;;;;;9.17;5.40;;;;;;;15.77;92.58;100910.72;6259441;28;20236;-75
2022/10/22 01:06:24;;;;;;;9.37;5.73;;;;;;;15.81;92.82;100906.66;6260857;28;20235;-76
2022/10/22 01:09:52;;;;;;;5.00;3.63;;;;;;;15.80;92.69;100904.97;6266708;28;20299;-75
2022/10/22 01:13:32;;;;;;;8.83;6.03;;;;;;;15.82;92.17;100908.34;6263016;28;20632;-75
2022/10/22 01:16:59;;;;;;;8.37;5.07;;;;;;;15.87;91.81;100910.56;6257981;28;20223;-75
2022/10/22 01:20:45;;;;;;;6.00;5.30;;;;;;;15.90;91.88;100919.22;6265001;28;20247;-75
2022/10/22 01:24:20;;;;;;;6.97;6.30;;;;;;;15.74;92.68;100921.09;6264660;28;20227;-75
2022/10/22 01:27:57;;;;;;;6.37;5.00;;;;;;;15.81;92.36;100927.56;6244448;28;20317;-75
2022/10/22 01:31:23;;;;;;;6.13;4.90;;;;;;;15.88;92.02;100918.56;6250933;28;20547;-75
2022/10/22 01:34:49;;;;;;;6.77;6.07;;;;;;;15.83;91.92;100917.38;6260678;28;20318;-75
2022/10/22 01:38:14;;;;;;;6.33;5.20;;;;;;;15.68;92.88;100922.63;6244147;28;20504;-75
2022/10/22 01:41:35;;;;;;;7.87;5.83;;;;;;;15.50;93.59;100919.19;6248906;28;20261;-75
2022/10/22 01:44:56;;;;;;;9.50;6.23;;;;;;;15.37;94.67;100926.94;6249935;28;20511;-75
2022/10/22 01:48:34;;;;;;;9.37;5.70;;;;;;;15.38;93.94;100925.06;6239942;28;20227;-75
2022/10/22 01:52:04;;;;;;;7.67;6.40;;;;;;;15.34;94.84;100927.25;6258452;28;20246;-75
2022/10/22 01:55:30;;;;;;;9.00;6.73;;;;;;;15.26;95.12;100921.81;6260202;28;20215;-76
2022/10/22 01:58:57;;;;;;;12.63;7.00;;;;;;;15.18;95.50;100925.38;6273822;28;20239;-76
2022/10/22 02:02:29;;;;;;;9.07;6.07;;;;;;;15.09;95.81;100930.91;6259405;28;20552;-76
2022/10/22 02:05:55;;;;;;;8.93;5.23;;;;;;;15.10;96.05;100925.31;6263717;28;20346;-76
2022/10/22 02:09:20;;;;;;;6.90;5.57;;;;;;;15.02;96.33;100922.56;6272089;28;20223;-75
2022/10/22 02:12:44;;;;;;;7.77;6.30;;;;;;;15.05;95.65;100918.69;6254639;28;20771;-76
2022/10/22 02:16:08;;;;;;;8.20;5.40;;;;;;;15.02;95.65;100909.00;6264092;28;20259;-75
2022/10/22 02:19:38;;;;;;;8.97;7.07;;;;;;;14.98;95.28;100901.31;6274938;28;20230;-75
2022/10/22 02:23:01;;;;;;;6.60;5.33;;;;;;;14.98;95.59;100902.19;6267569;28;20231;-75
2022/10/22 02:26:28;;;;;;;8.57;6.10;;;;;;;14.97;95.61;100897.78;6272469;28;20600;-74
2022/10/22 02:29:57;;;;;;;7.80;4.70;;;;;;;14.96;94.74;100895.22;6274637;28;20238;-76
2022/10/22 02:33:22;;;;;;;6.90;6.23;;;;;;;14.94;94.87;100892.66;6253730;28;20231;-74
2022/10/22 02:36:45;;;;;;;6.60;5.37;;;;;;;14.84;94.50;100904.66;6245956;28;20223;-75
2022/10/22 02:40:08;;;;;;;5.60;4.80;;;;;;;14.76;95.28;100905.50;6265166;28;20231;-75
2022/10/22 02:43:29;;;;;;;8.27;6.73;;;;;;;14.70;95.80;100908.88;6272818;28;20337;-75
2022/10/22 02:46:51;;;;;;;6.20;5.23;;;;;;;14.73;95.46;100904.94;6262379;28;20235;-75
2022/10/22 02:50:11;;;;;;;8.27;5.27;;;;;;;14.70;94.89;100903.44;6261035;28;20239;-74
2022/10/22 02:53:32;;;;;;;11.07;5.73;;;;;;;14.65;94.92;100900.34;6276984;28;20257;-76
2022/10/22 02:56:55;;;;;;;7.73;4.97;;;;;;;14.67;94.98;100898.31;6264889;28;20259;-75
2022/10/22 03:00:16;;;;;;;5.60;5.10;;;;;;;14.61;94.39;100898.09;6269403;28;20234;-76
2022/10/22 03:03:37;;;;;;;5.37;4.87;;;;;;;14.54;94.39;100903.31;6279121;28;20227;-75
2022/10/22 03:06:58;;;;;;;5.87;4.53;;;;;;;14.52;94.16;100902.63;6249432;28;20530;-76
2022/10/22 03:10:19;;;;;;;7.73;5.87;;;;;;;14.50;94.43;100901.94;6259915;28;20243;-76
2022/10/22 03:13:41;;;;;;;7.10;4.83;;;;;;;14.47;94.30;100904.13;6269699;28;20230;-75
2022/10/22 03:17:02;;;;;;;6.40;5.83;;;;;;;14.45;93.78;100906.16;6258192;28;20231;-75
2022/10/22 03:20:23;;;;;;;9.47;6.23;;;;;;;14.28;95.47;100910.59;6263973;28;20620;-76
2022/10/22 03:23:43;;;;;;;6.63;5.43;;;;;;;14.11;97.03;100920.47;6264380;28;20303;-74
2022/10/22 03:27:04;;;;;;;6.17;4.90;;;;;;;14.11;97.08;100920.47;6252770;28;20336;-75
2022/10/22 03:30:27;;;;;;;6.27;4.77;;;;;;;14.02;97.96;100928.69;6261849;28;20222;-75
2022/10/22 03:33:48;;;;;;;8.93;5.77;;;;;;;14.10;98.07;100929.59;6270668;28;20571;-76
2022/10/22 03:37:10;;;;;;;8.33;5.73;;;;;;;14.15;97.67;100940.84;6259428;28;20230;-76
2022/10/22 03:40:31;;;;;;;10.83;6.47;;;;;;;14.21;97.21;100932.06;6259185;28;20269;-76
2022/10/22 03:43:52;;;;;;;14.77;6.17;;;;;;;14.14;97.19;100949.13;6269433;28;20611;-75
2022/10/22 03:47:14;;;;;;;8.40;5.60;;;;;;;14.15;96.95;100946.25;6266245;28;20243;-75
2022/10/22 03:50:35;;;;;;;8.67;5.80;;;;;;;14.15;97.50;100948.97;6267462;28;20231;-75
2022/10/22 03:53:56;;;;;;;6.60;5.80;;;;;;;14.16;97.13;100956.09;6284143;28;20231;-75
2022/10/22 03:57:17;;;;;;;7.03;4.67;;;;;;;14.18;96.87;100961.38;6267697;28;20227;-75
2022/10/22 04:00:38;;;;;;;6.90;5.20;;;;;;;14.21;96.62;100963.75;6264986;28;20353;-75
2022/10/22 04:04:01;;;;;;;6.13;5.53;;;;;;;14.18;96.89;100962.22;6279923;28;20231;-74
2022/10/22 04:07:21;;;;;;;6.70;3.93;;;;;;;14.20;96.30;100971.06;6262519;28;20236;-75
2022/10/22 04:10:42;;;;;;;8.17;5.17;;;;;;;14.05;98.13;100967.19;6271971;28;20548;-75
2022/10/22 04:14:03;;;;;;;6.90;5.37;;;;;;;13.97;97.66;100980.69;6286920;28;20314;-74
2022/10/22 04:17:24;;;;;;;7.53;5.50;;;;;;;13.87;98.23;100979.88;6264309;28;22478;-75
2022/10/22 04:20:46;;;;;;;7.03;5.30;;;;;;;13.88;98.57;100986.16;6273621;28;20326;-75
2022/10/22 04:24:07;;;;;;;5.60;4.80;;;;;;;13.98;97.74;100973.38;6285239;28;20342;-75
2022/10/22 04:27:30;;;;;;;8.37;6.10;;;;;;;14.04;96.90;100978.19;6264837;28;20481;-75
2022/10/22 04:30:51;;;;;;;8.80;5.27;;;;;;;13.99;96.30;100975.94;6265425;28;20230;-75
2022/10/22 04:34:11;;;;;;;6.60;5.13;;;;;;;14.01;96.23;100970.38;6265332;28;20330;-75
2022/10/22 04:37:34;;;;;;;7.70;5.87;;;;;;;13.95;95.73;100977.28;6259503;28;20235;-76
2022/10/22 04:40:55;;;;;;;10.40;7.17;;;;;;;13.94;95.66;100974.69;6267124;28;20248;-74
2022/10/22 04:44:16;;;;;;;9.70;6.43;;;;;;;13.96;95.51;100978.09;6257404;28;20226;-75
2022/10/22 04:47:37;;;;;;;6.27;5.63;;;;;;;13.93;95.11;100979.28;6268159;28;20219;-75
2022/10/22 04:50:59;;;;;;;6.90;5.17;;;;;;;13.87;95.12;100977.16;6264074;28;20877;-76
2022/10/22 04:54:21;;;;;;;5.80;4.97;;;;;;;13.86;95.36;100975.47;6283215;28;20222;-76
2022/10/22 04:57:42;;;;;;;9.33;4.70;;;;;;;13.87;95.33;100970.91;6265737;28;20318;-76
2022/10/22 05:01:10;;;;;;;7.43;5.93;;;;;;;13.81;95.11;100968.84;6245104;28;20599;-75
2022/10/22 05:04:30;;;;;;;9.40;6.43;;;;;;;13.81;95.11;100972.38;6273208;28;20235;-74
2022/10/22 05:07:51;;;;;;;9.17;5.37;;;;;;;13.69;96.11;100981.75;6269792;28;20309;-75
2022/10/22 05:11:16;;;;;;;6.63;4.67;;;;;;;13.52;96.92;100975.31;6257963;28;20264;-75
2022/10/22 05:14:37;;;;;;;8.90;5.63;;;;;;;13.45;97.76;100981.50;6287015;28;20929;-75
2022/10/22 05:17:58;;;;;;;5.53;4.50;;;;;;;13.48;97.73;100992.00;6245012;28;20234;-76
2022/10/22 05:21:20;;;;;;;5.90;5.00;;;;;;;13.58;97.72;100981.94;6259767;28;20321;-75
2022/10/22 05:24:41;;;;;;;5.73;5.13;;;;;;;13.68;97.04;100985.47;6265410;28;20802;-76
2022/10/22 05:28:04;;;;;;;5.73;5.13;;;;;;;13.54;97.65;100985.97;6261596;28;20223;-76
2022/10/22 05:31:27;;;;;;;7.10;5.43;;;;;;;13.45;98.23;100990.47;6251441;28;20247;-75
2022/10/22 05:34:48;;;;;;;7.40;6.10;;;;;;;13.52;98.36;100996.97;6265477;28;20231;-74
2022/10/22 05:38:08;;;;;;;7.13;6.20;;;;;;;13.46;98.14;101000.28;6238963;28;20223;-75
2022/10/22 05:41:29;;;;;;;8.67;5.80;;;;;;;13.38;98.60;100991.22;6262465;28;20235;-75
2022/10/22 05:44:51;;;;;;;8.13;5.70;;;;;;;13.54;98.49;101000.38;6275467;28;20224;-75
2022/10/22 05:48:12;;;;;;;7.53;5.00;;;;;;;13.59;98.04;100995.38;6262973;28;20445;-75
2022/10/22 05:51:35;;;;;;;10.83;5.50;;;;;;;13.43;98.45;100999.75;6274693;28;20234;-75
2022/10/22 05:54:56;;;;;;;7.43;5.20;;;;;;;13.46;98.98;101000.28;6278471;28;20519;-74
2022/10/22 05:58:17;;;;;;;7.80;5.50;;;;;;;13.58;98.40;100999.06;6246421;28;20254;-75
2022/10/22 06:01:40;;;;;;;5.07;4.23;;;;;;;13.53;98.35;101009.53;6252801;28;20414;-75
2022/10/22 06:05:01;;;;;;;11.13;5.70;;;;;;;13.41;99.01;101013.41;6264636;28;20235;-75
2022/10/22 06:08:22;;;;;;;6.93;4.93;;;;;;;13.40;99.15;101013.56;6243034;28;20271;-75
2022/10/22 06:11:42;;;;;;;7.67;6.77;;;;;;;13.47;98.89;101023.69;6259354;28;20235;-74
2022/10/22 06:15:04;;;;;;;7.43;5.67;;;;;;;13.64;98.20;101020.13;6275642;28;20318;-75
2022/10/22 06:18:26;;;;;;;6.33;5.20;;;;;;;13.61;97.60;101022.28;6249604;28;20231;-75
2022/10/22 06:21:47;;;;;;;6.20;5.57;;;;;;;13.71;97.55;101016.81;6252970;28;20226;-74
2022/10/22 06:25:09;;;;;;;8.60;6.90;;;;;;;13.65;97.24;101023.69;6274336;28;20665;-76
2022/10/22 06:28:30;;;;;;;7.73;5.80;;;;;;;13.67;97.08;101023.53;6272282;28;20219;-75
2022/10/22 06:31:51;;;;;;;9.87;6.03;;;;;;;13.66;96.96;101019.13;6238300;28;20325;-74
2022/10/22 06:35:14;;;;;;;10.67;6.27;;;;;;;13.46;97.80;101030.06;6251742;28;20230;-75
2022/10/22 06:38:34;;;;;;;7.90;5.53;;;;;;;13.56;97.86;101027.31;6269006;28;20235;-71
2022/10/22 06:41:55;;;;;;;6.63;4.80;;;;;;;13.61;97.49;101033.13;6256638;28;20348;-72
2022/10/22 06:45:17;;;;;;;5.67;4.43;;;;;;;13.56;97.27;101030.88;6256332;28;20223;-73
2022/10/22 06:48:39;;;;;;;11.33;5.23;;;;;;;13.35;97.66;101032.97;6245259;28;20514;-75
2022/10/22 06:52:01;;;;;;;10.93;5.53;;;;;;;13.34;98.41;101047.53;6255055;28;20565;-73
2022/10/22 06:55:22;;;;;;;7.83;6.30;;;;;;;13.48;98.32;101049.75;6254083;28;20259;-72
2022/10/22 06:58:43;;;;;;;7.93;5.20;;;;;;;13.54;97.68;101050.97;6263720;28;20361;-73
2022/10/22 07:02:04;;;;;;;6.47;4.57;;;;;;;13.64;97.68;101060.75;6241537;28;20259;-72
2022/10/22 07:05:25;;;;;;;6.60;5.43;;;;;;;13.90;96.78;101065.44;6249170;28;20227;-72
2022/10/22 07:08:47;;;;;;;8.40;6.60;;;;;;;13.94;96.01;101073.13;6263144;28;20231;-71
2022/10/22 07:12:08;;;;;;;8.33;5.60;;;;;;;14.12;95.37;101067.75;6246264;28;20223;-71
2022/10/22 07:15:28;;;;;;;6.77;5.73;;;;;;;14.17;94.55;101070.81;6253755;28;20567;-71
2022/10/22 07:18:50;;;;;;;7.10;5.17;;;;;;;14.29;94.29;101084.03;6261504;28;20239;-72
2022/10/22 07:22:11;;;;;;;7.93;6.13;;;;;;;14.32;93.96;101082.88;6250257;28;20345;-71
2022/10/22 07:25:33;;;;;;;6.23;5.53;;;;;;;14.43;93.25;101086.19;6254253;28;20262;-71
2022/10/22 07:28:54;;;;;;;7.57;6.03;;;;;;;14.52;92.58;101091.72;6262223;28;20231;-72
2022/10/22 07:32:15;;;;;;;5.70;4.40;;;;;;;14.57;92.38;101084.81;6249459;28;20302;-71
2022/10/22 07:35:37;;;;;;;6.20;5.00;;;;;;;14.67;92.00;101088.28;6260946;28;20620;-71
2022/10/22 07:39:00;;;;;;;7.17;5.57;;;;;;;14.91;90.57;101084.91;6267800;28;20223;-71
2022/10/22 07:42:22;;;;;;;5.60;4.97;;;;;;;15.00;89.85;101092.06;6270044;28;20223;-72
2022/10/22 07:45:43;;;;;;;7.97;6.27;;;;;;;14.63;91.28;101100.44;6265908;28;20353;-73
2022/10/22 07:49:04;;;;;;;5.80;5.20;;;;;;;14.95;90.28;101094.44;6243853;28;20239;-73
2022/10/22 07:52:26;;;;;;;5.83;4.73;;;;;;;15.38;88.69;101098.94;6244896;28;20231;-73
2022/10/22 07:55:48;;;;;;;6.50;5.77;;;;;;;15.52;88.37;101115.50;6253407;28;20232;-71
2022/10/22 07:59:10;;;;;;;7.20;5.20;;;;;;;15.64;87.51;101114.22;6257433;28;20259;-72
2022/10/22 08:02:31;;;;;;;11.87;5.33;;;;;;;15.44;88.30;101120.91;6248131;28;20318;-72
2022/10/22 08:05:52;;;;;;;5.67;5.07;;;;;;;15.34;89.61;101125.56;6247701;28;20235;-71
2022/10/22 08:09:13;;;;;;;6.33;5.73;;;;;;;15.64;88.96;101129.69;6263756;28;20227;-73
2022/10/22 08:12:34;;;;;;;9.37;5.23;;;;;;;15.78;88.47;101123.63;6257583;28;21562;-73
2022/10/22 08:15:56;;;;;;;7.90;6.30;;;;;;;15.77;89.18;101122.75;6251888;28;20262;-72
2022/10/22 08:19:20;;;;;;;7.07;5.10;;;;;;;15.81;88.34;101124.13;6276590;28;20235;-71
2022/10/22 08:22:40;;;;;;;7.00;4.73;;;;;;;16.09;87.04;101124.75;6265739;28;20235;-71
2022/10/22 08:26:02;;;;;;;6.73;6.13;;;;;;;16.38;86.45;101129.75;6268995;28;20227;-71
2022/10/22 08:29:24;;;;;;;6.97;5.03;;;;;;;16.38;86.04;101129.75;6283754;28;20321;-71
2022/10/22 08:32:46;;;;;;;7.82;5.05;;;;;;;16.29;85.59;101131.59;6243819;28;20227;-71
2022/10/22 08:36:08;;;;;;;7.80;5.00;;;;;;;16.76;84.26;101140.03;6235037;28;20228;-72
2022/10/22 08:39:28;;;;;;;8.40;5.00;;;;;;;16.84;83.96;101148.22;6251760;28;20235;-71
2022/10/22 08:43:23;;;;;;;6.90;4.83;;;;;;;16.86;84.36;101156.19;6247614;28;20223;-72
2022/10/22 08:46:59;;;;;;;7.13;3.85;;;;;;;17.06;83.89;101155.72;6248596;28;20235;-72
2022/10/22 08:50:26;;;;;;;5.82;5.22;;;;;;;16.94;83.61;101157.06;6255401;28;20582;-72
2022/10/22 08:54:12;;;;;;;6.78;4.35;;;;;;;17.63;81.26;101156.47;6257262;28;20457;-68
2022/10/22 08:57:44;;;;;;;5.07;4.57;;;;;;;17.43;80.39;101156.00;6255165;28;20565;-68
2022/10/22 09:01:10;;;;;;;13.88;4.25;;;;;;;17.60;79.88;101165.03;6243111;28;20539;-68
2022/10/22 09:04:40;;;;;;;6.10;4.47;;;;;;;17.86;79.85;101162.88;6253744;28;20236;-68
2022/10/22 09:08:02;;;;;;;5.10;4.03;;;;;;;18.49;76.80;101159.19;6250045;28;20223;-68
2022/10/22 09:11:26;;;;;;;4.80;3.80;;;;;;;18.44;76.72;101167.09;6244405;28;20807;-68
2022/10/22 09:14:47;;;;;;;4.03;3.38;;;;;;;20.59;68.18;101161.44;6260262;28;20231;-69
2022/10/22 09:18:22;;;;;;;5.82;4.35;;;;;;;22.14;61.99;101159.34;6242318;28;20342;-68
2022/10/22 09:21:53;;;;;;;4.53;2.50;;;;;;;22.73;59.63;101143.94;6241784;28;20337;-68
2022/10/22 09:25:20;;;;;;;4.53;3.33;;;;;;;24.31;55.00;101155.63;6251301;28;20558;-68
2022/10/22 09:28:40;;;;;;;5.72;2.65;;;;;;;24.70;52.94;101152.66;6257837;28;20676;-68
2022/10/22 09:32:01;;;;;;;4.10;1.98;;;;;;;24.34;53.61;101149.69;6258515;28;20486;-67
2022/10/22 09:35:24;;;;;;;3.00;2.08;;;;;;;25.17;50.20;101151.31;6234456;28;20228;-68
2022/10/22 09:38:48;;;;;;;6.47;1.98;;;;;;;26.28;47.75;101150.22;6251497;28;21725;-68
2022/10/22 09:42:14;;;;;;;4.03;2.00;;;;;;;26.98;45.77;101150.50;6257929;28;20238;-68
2022/10/22 09:45:34;;;;;;;3.40;2.65;;;;;;;24.72;50.31;101161.56;6224620;28;20259;-67
2022/10/22 09:49:04;;;;;;;2.92;2.38;;;;;;;22.63;56.25;101161.88;6241193;28;20525;-67
2022/10/22 09:52:30;;;;;;;2.15;1.95;;;;;;;22.26;56.92;101177.78;6246389;28;20379;-67
2022/10/22 09:55:53;;;;;;;4.63;2.15;;;;;;;25.50;50.27;101167.63;6240118;28;20558;-67
2022/10/22 09:59:17;;;;;;;9.00;3.38;;;;;;;24.17;51.05;101168.63;6264185;28;20539;-67
2022/10/22 10:02:41;;;;;;;1.52;1.30;;;;;;;24.61;50.94;101165.88;6259721;28;20600;-67
2022/10/22 10:06:03;;;;;;;2.30;2.17;;;;;;;25.49;48.39;101165.94;6238157;28;20260;-68
2022/10/22 10:09:26;;;;;;;2.22;1.55;;;;;;;24.90;49.56;101169.13;6269609;28;20599;-69
2022/10/22 10:12:57;;;;;;;2.95;2.10;;;;;;;24.85;49.58;101169.78;6258228;28;20227;-67
2022/10/22 10:16:42;;;;;;;5.15;1.92;;;;;;;30.21;39.82;101167.13;6242453;28;20707;-67
2022/10/22 10:20:16;;;;;;;2.97;2.67;;;;;;;30.72;37.45;101164.72;6249596;28;20613;-68
2022/10/22 10:23:48;;;;;;;6.13;2.97;;;;;;;29.51;39.58;101169.66;6248913;28;20243;-67
2022/10/22 10:27:14;;;;;;;1.73;1.30;;;;;;;27.61;42.07;101168.22;6233584;28;20239;-68
2022/10/22 10:30:42;;;;;;;3.60;2.08;;;;;;;29.03;39.11;101162.69;6246438;28;20231;-68
2022/10/22 10:34:14;;;;;;;3.83;1.90;;;;;;;29.41;36.64;101158.38;6258064;28;20223;-68
2022/10/22 10:37:40;;;;;;;2.90;2.15;;;;;;;28.71;39.38;101158.75;6230576;28;20236;-67
2022/10/22 10:41:15;;;;;;;2.38;1.70;;;;;;;29.27;38.39;101155.06;6239701;28;20234;-68
2022/10/22 10:45:00;;;;;;;4.07;3.20;;;;;;;28.58;39.40;101153.50;6231266;28;20235;-67
2022/10/22 10:48:48;;;;;;;7.60;2.17;;;;;;;28.85;37.83;101156.53;6223618;28;20251;-67
2022/10/22 10:52:17;;;;;;;3.08;1.77;;;;;;;31.64;33.81;101158.06;6256207;28;20226;-67
2022/10/22 10:55:47;;;;;;;4.50;3.35;;;;;;;28.59;38.82;101157.97;6229017;28;20234;-68
2022/10/22 10:59:19;;;;;;;6.07;2.17;;;;;;;25.96;43.29;101168.00;6240955;28;20645;-67
2022/10/22 11:03:09;;;;;;;3.95;1.77;;;;;;;25.45;44.67;101170.22;6243936;28;20235;-67
2022/10/22 11:06:32;;;;;;;1.45;1.30;;;;;;;26.72;42.57;101154.53;6248086;28;20317;-68
2022/10/22 11:10:00;;;;;;;3.35;2.53;;;;;;;32.41;32.89;101152.66;6238693;28;20602;-67
2022/10/22 11:13:28;;;;;;;1.77;1.67;;;;;;;33.08;32.06;101147.84;6215014;28;20921;-68
2022/10/22 11:16:53;;;;;;;5.32;2.63;;;;;;;31.10;35.87;101162.88;6248434;28;20925;-68
2022/10/22 11:20:18;;;;;;;3.53;2.42;;;;;;;33.32;32.40;101159.31;6245941;28;20250;-68
2022/10/22 11:23:44;;;;;;;2.63;1.75;;;;;;;32.97;33.00;101149.78;6262828;28;20319;-67
2022/10/22 11:27:17;;;;;;;2.67;1.88;;;;;;;32.17;33.36;101149.47;6258214;28;20227;-67
2022/10/22 11:30:40;;;;;;;3.10;1.52;;;;;;;28.42;39.84;101151.47;6225975;28;20220;-68
2022/10/22 11:34:07;;;;;;;2.03;1.65;;;;;;;31.16;35.30;101151.53;6244706;28;20227;-68
2022/10/22 11:37:33;;;;;;;3.10;1.40;;;;;;;30.37;36.60;101143.97;6235124;28;20232;-68
2022/10/22 11:40:58;;;;;;;3.03;1.15;;;;;;;31.34;35.18;101142.75;6241515;28;20227;-67
2022/10/22 11:44:24;;;;;;;2.88;1.60;;;;;;;32.63;32.25;101134.59;6244113;28;20243;-67
2022/10/22 11:47:53;;;;;;;2.60;1.90;;;;;;;31.61;33.23;101153.84;6240300;28;20638;-68
2022/10/22 11:51:29;;;;;;;4.68;2.22;;;;;;;27.50;41.62;101156.03;6243950;28;20232;-67
2022/10/22 11:54:56;;;;;;;1.83;1.30;;;;;;;28.74;40.17;101154.66;6245375;28;20807;-67
2022/10/22 11:58:34;;;;;;;3.47;1.42;;;;;;;31.93;34.68;101145.41;6246994;28;20232;-68
2022/10/22 12:01:56;;;;;;;1.77;1.25;;;;;;;27.80;40.68;101153.16;6250291;28;20227;-68
2022/10/22 12:05:35;;;;;;;3.90;1.23;;;;;;;25.56;46.21;101152.91;6247192;28;20222;-68
2022/10/22 12:09:01;;;;;;;2.13;1.13;;;;;;;25.25;46.15;101154.66;6252170;28;20231;-69
2022/10/22 12:12:23;;;;;;;2.20;0.98;;;;;;;24.40;49.28;101152.44;6254805;28;20235;-68
2022/10/22 12:15:47;;;;;;;1.88;1.08;;;;;;;24.06;50.11;101151.91;6262286;28;20223;-68
2022/10/22 12:19:15;;;;;;;2.92;1.60;;;;;;;23.45;52.55;101154.13;6264178;28;20488;-68
2022/10/22 12:22:36;;;;;;;2.80;1.27;;;;;;;22.21;56.28;101168.47;6247992;28;20227;-69
2022/10/22 12:25:58;;;;;;;1.63;1.52;;;;;;;22.73;54.49;101162.31;6260321;28;20223;-66
2022/10/22 12:29:21;;;;;;;5.05;1.35;;;;;;;22.05;56.96;101175.13;6271832;28;20235;-68
2022/10/22 12:32:42;;;;;;;3.20;1.38;;;;;;;20.83;61.65;101172.03;6265070;28;20227;-67
2022/10/22 12:36:04;;;;;;;2.13;1.10;;;;;;;20.46;63.01;101175.81;6262285;28;20227;-67
2022/10/22 12:39:27;;;;;;;2.13;1.85;;;;;;;20.35;63.46;101178.22;6264340;28;20231;-68
2022/10/22 12:42:52;;;;;;;5.00;2.85;;;;;;;20.08;65.53;101177.03;6259761;28;20222;-70
2022/10/22 12:46:15;;;;;;;3.35;1.40;;;;;;;20.20;65.30;101172.78;6258101;28;20227;-73
2022/10/22 12:49:41;;;;;;;2.88;1.10;;;;;;;19.99;66.33;101175.41;6280789;28;20223;-72
2022/10/22 12:53:05;;;;;;;2.45;2.25;;;;;;;20.27;64.84;101178.34;6275896;28;20231;-71
2022/10/22 12:56:29;;;;;;;7.18;1.90;;;;;;;19.94;65.44;101183.34;6259435;28;20672;-72
2022/10/22 12:59:51;;;;;;;3.67;2.33;;;;;;;19.57;66.40;101187.00;6287210;28;20215;-72
2022/10/22 13:03:26;;;;;;;2.03;1.60;;;;;;;20.02;64.99;101176.91;6256256;28;20238;-74
2022/10/22 13:06:48;;;;;;;2.03;1.75;;;;;;;20.03;65.65;101189.56;6273940;28;20226;-71
2022/10/22 13:10:20;;;;;;;3.00;1.88;;;;;;;19.99;65.75;101185.50;6278234;28;20227;-72
2022/10/22 13:13:44;;;;;;;4.60;1.92;;;;;;;19.73;66.70;101186.00;6242431;28;20246;-73
2022/10/22 13:17:09;;;;;;;6.15;3.42;;;;;;;19.96;66.27;101186.75;6276877;28;20243;-72
2022/10/22 13:20:30;;;;;;;4.28;2.42;;;;;;;19.78;67.22;101191.72;6259015;28;20235;-72
2022/10/22 13:23:58;;;;;;;1.75;1.40;;;;;;;19.97;66.54;101182.09;6285264;28;20321;-73
2022/10/22 13:27:20;;;;;;;2.97;1.80;;;;;;;19.92;66.97;101191.72;6246009;28;20232;-71
2022/10/22 13:30:52;;;;;;;7.57;2.80;;;;;;;19.59;67.18;101184.06;6242190;28;20223;-72
2022/10/22 13:34:17;;;;;;;2.58;2.38;;;;;;;19.46;67.33;101194.81;6254063;28;20457;-71
2022/10/22 13:37:38;;;;;;;7.22;2.28;;;;;;;20.26;64.45;101184.84;6247404;28;20239;-71
2022/10/22 13:41:01;;;;;;;3.63;1.92;;;;;;;20.16;64.65;101178.78;6242689;28;20228;-71
2022/10/22 13:44:24;;;;;;;4.57;2.75;;;;;;;20.75;62.70;101176.78;6261222;28;20235;-71
2022/10/22 13:47:49;;;;;;;4.88;1.63;;;;;;;21.37;60.44;101178.69;6223013;28;20284;-74
2022/10/22 13:51:14;;;;;;;4.90;1.38;;;;;;;20.25;63.82;101177.69;6249259;28;20394;-72
2022/10/22 13:54:36;;;;;;;7.88;2.22;;;;;;;20.17;64.42;101178.59;6249431;28;20240;-73
2022/10/22 13:58:00;;;;;;;5.10;1.67;;;;;;;20.03;64.76;101186.81;6220168;28;20232;-74
2022/10/22 14:01:24;;;;;;;4.25;2.30;;;;;;;19.64;66.44;101178.91;6252587;28;20685;-76
2022/10/22 14:04:46;;;;;;;6.90;2.70;;;;;;;19.28;67.48;101181.44;6261038;28;20369;-75
2022/10/22 14:08:11;;;;;;;2.55;2.28;;;;;;;18.98;68.40;101183.22;6238691;28;21383;-74
2022/10/22 14:11:34;;;;;;;2.67;1.70;;;;;;;19.13;68.30;101186.88;6259579;28;20226;-73
2022/10/22 14:14:54;;;;;;;3.03;1.77;;;;;;;19.24;68.38;101179.25;6262519;28;20224;-73
2022/10/22 14:18:24;;;;;;;5.93;2.03;;;;;;;20.14;64.61;101175.41;6250708;28;20545;-73
2022/10/22 14:21:45;;;;;;;3.03;1.55;;;;;;;20.26;64.23;101177.47;6253208;28;20219;-74
2022/10/22 14:25:06;;;;;;;3.45;1.83;;;;;;;20.78;61.88;101177.25;6259855;28;20335;-74
2022/10/22 14:28:27;;;;;;;1.75;1.65;;;;;;;20.60;62.06;101183.19;6250120;28;20270;-73
2022/10/22 14:31:48;;;;;;;1.98;1.30;;;;;;;20.43;62.14;101186.31;6247565;28;20230;-73
2022/10/22 14:35:13;;;;;;;4.70;2.05;;;;;;;19.66;63.99;101191.38;6236072;28;20315;-73
2022/10/22 14:38:34;;;;;;;2.05;1.30;;;;;;;19.99;63.77;101188.25;6253887;28;20346;-74
2022/10/22 14:41:54;;;;;;;2.78;1.40;;;;;;;20.22;62.61;101183.53;6260979;28;20228;-75
2022/10/22 14:45:18;;;;;;;3.42;2.17;;;;;;;19.46;65.32;101187.44;6275878;28;20239;-73
2022/10/22 14:48:39;;;;;;;4.07;2.13;;;;;;;19.08;66.29;101193.94;6276686;28;20322;-76
2022/10/22 14:52:01;;;;;;;3.42;1.88;;;;;;;18.90;67.03;101187.94;6265188;28;20343;-74
2022/10/22 14:55:22;;;;;;;3.20;2.00;;;;;;;19.00;66.88;101183.06;6273846;28;20255;-74
2022/10/22 14:58:44;;;;;;;10.00;3.25;;;;;;;18.95;66.98;101183.63;6271390;28;20232;-77
2022/10/22 15:02:05;;;;;;;4.40;1.73;;;;;;;18.87;67.56;101194.63;6270282;28;20231;-70
2022/10/22 15:05:26;;;;;;;1.38;1.27;;;;;;;18.59;68.69;101192.56;6268060;28;20235;-70
2022/10/22 15:08:48;;;;;;;2.78;1.35;;;;;;;18.62;68.37;101205.88;6268779;28;20231;-72
2022/10/22 15:12:09;;;;;;;3.50;1.83;;;;;;;18.46;69.13;101208.72;6269283;28;20259;-78
2022/10/22 15:15:29;;;;;;;6.95;2.90;;;;;;;18.50;69.39;101219.09;6238684;28;20231;-74
2022/10/22 15:18:51;;;;;;;3.92;1.40;;;;;;;18.38;69.67;101213.13;6263466;28;20235;-74
2022/10/22 15:22:13;;;;;;;2.22;1.60;;;;;;;18.34;70.29;101216.41;6279446;28;20676;-75
2022/10/22 15:25:35;;;;;;;3.60;1.98;;;;;;;18.20;70.58;101219.88;6278272;28;20247;-74
2022/10/22 15:28:56;;;;;;;4.00;1.77;;;;;;;18.14;70.72;101226.91;6277004;28;20246;-75
2022/10/22 15:32:17;;;;;;;3.08;1.85;;;;;;;18.15;70.94;101228.59;6275659;28;20326;-75
2022/10/22 15:35:38;;;;;;;3.92;2.20;;;;;;;18.31;70.54;101233.16;6269156;28;20231;-75
2022/10/22 15:38:59;;;;;;;1.50;1.40;;;;;;;18.24;70.82;101233.00;6275586;28;20326;-74
2022/10/22 15:42:22;;;;;;;5.05;1.67;;;;;;;18.13;71.14;101235.25;6269879;28;20620;-75
2022/10/22 15:45:42;;;;;;;2.63;1.45;;;;;;;18.16;72.02;101240.38;6273926;28;20235;-75
2022/10/22 15:49:03;;;;;;;2.05;1.50;;;;;;;17.83;74.39;101247.81;6255669;28;20738;-76